SBOSBO OSL / ENGM
Speedbird OnlineSpeedbird Online OSL / ENGM

Oslo Lufthavn
23:51 3.2°C

Location Oslo, Norway
Latitude: 60.121
Longitude: 11.0502
Web Airport Website | Wikipedia
Altitude 208 Meter / 681 Feet
Distance 1,173 KM / 729 Miles
from London.
Time Zone UTC +1 hours (Europe/Oslo)
Codes IATA: OSL
ICAO: ENGM
Currency £1 equals NOK 12.39
Runways
RunwayLength (m)Surface
01L3600Asphalt
01R2950Asphalt
19L2950Asphalt
19R3600Asphalt
Radio
TypeDescriptionFrequency
APPAPP119.975
ATISATIS126.125
CLDCLNC DEL121.6
DIRDIRECTOR131.35
GNDGND121.925
MISCDE ICING131.975
OPSWINGOPS29.38
PMSVPMSV METRO134.175
TWRTWR118.3
Live ATC
METAR ENGM 081450Z 22015KT 9999 BKN005 03/02 Q1024 NOSIG
TAF TAF ENGM 0812/0912 20008KT 0800 -FZDZ FZFG VV002 TEMPO 0812/0813 5000 -FZDZ OVC004 BECMG 0813/0815 20018KT 8000 -DZRA SCT003 OVC010 TEMPO 0815/0906 2000 DZ BR OVC003 TEMPO 0817/0906 20025G35KT BECMG 0906/0908 CAVOK
Weather As Of 08 Feb 2023 23:51
Description Overcast clouds
Wind 33 km/h from South-West (210°)
Cloud Cover 100%
Precipitation Rain: none, Snow: none
Sunrise 08:14
Sunset 16:45
Lounges OSL Lounge , Main terminal
Rotations During the last 90 days there were
213 flights from LHR
214 flights to LHR



Support Speedbird Online

© 2017-2023 Speedbird Online